createdAt,value
2023-01-04T00:01:10.964Z,3.50
2023-01-04T00:03:37.747Z,3.50
2023-01-04T00:06:05.814Z,3.50
2023-01-04T00:08:32.581Z,3.50
2023-01-04T00:11:02.876Z,3.50
2023-01-04T00:13:30.081Z,3.40
2023-01-04T00:15:59.086Z,3.40
2023-01-04T00:18:29.992Z,3.40
2023-01-04T00:21:05.648Z,3.40
2023-01-04T00:23:32.173Z,3.40
2023-01-04T00:25:58.672Z,3.40
2023-01-04T00:28:25.396Z,3.40
2023-01-04T00:30:51.905Z,3.30
2023-01-04T00:33:18.429Z,3.30
2023-01-04T00:35:46.306Z,3.30
2023-01-04T00:38:13.163Z,3.30
2023-01-04T00:40:39.777Z,3.30
2023-01-04T00:43:06.289Z,3.30
2023-01-04T00:45:32.929Z,3.40
2023-01-04T00:47:59.504Z,3.30
2023-01-04T00:50:26.003Z,3.30
2023-01-04T00:52:52.571Z,3.30
2023-01-04T00:55:19.200Z,3.30
2023-01-04T00:57:45.805Z,3.30
2023-01-04T01:00:12.708Z,3.20
2023-01-04T01:02:39.756Z,3.20
2023-01-04T01:05:06.859Z,3.20
2023-01-04T01:07:33.449Z,3.20
2023-01-04T01:10:00.477Z,3.20
2023-01-04T01:12:27.081Z,3.20
2023-01-04T01:14:57.287Z,3.20
2023-01-04T01:17:26.973Z,3.20
2023-01-04T01:19:53.510Z,3.20
2023-01-04T01:22:20.022Z,3.20
2023-01-04T01:24:46.549Z,3.20
2023-01-04T01:27:13.130Z,3.10
2023-01-04T01:29:39.710Z,3.20
2023-01-04T01:32:06.239Z,3.20
2023-01-04T01:34:32.878Z,3.30
2023-01-04T01:36:59.372Z,3.20
2023-01-04T01:39:25.894Z,3.30
2023-01-04T01:41:52.411Z,3.30
2023-01-04T01:44:37.852Z,3.30
2023-01-04T01:47:04.372Z,3.30
2023-01-04T01:49:32.366Z,3.30
2023-01-04T01:52:06.514Z,3.30
2023-01-04T01:54:34.583Z,3.30
2023-01-04T01:57:02.284Z,3.30
2023-01-04T01:59:29.809Z,3.40
2023-01-04T02:01:56.900Z,3.40
2023-01-04T02:04:23.802Z,3.50
2023-01-04T02:06:51.805Z,3.50
2023-01-04T02:09:19.352Z,3.50
2023-01-04T02:11:45.912Z,3.50
2023-01-04T02:14:28.674Z,3.50
2023-01-04T02:17:11.442Z,3.60
2023-01-04T02:19:57.942Z,3.60
2023-01-04T02:22:36.696Z,3.60
2023-01-04T02:25:12.402Z,3.60
2023-01-04T02:27:44.995Z,3.60
2023-01-04T02:30:20.740Z,3.70
2023-01-04T02:32:53.465Z,3.70
2023-01-04T02:35:23.101Z,3.60
2023-01-04T02:37:55.936Z,3.70
2023-01-04T02:40:28.306Z,3.70
2023-01-04T02:43:17.214Z,3.70
2023-01-04T02:45:50.846Z,3.70
2023-01-04T02:48:40.327Z,3.70
2023-01-04T02:51:24.554Z,3.80
2023-01-04T02:53:51.102Z,3.90
2023-01-04T02:56:19.895Z,3.80
2023-01-04T02:59:05.304Z,3.80
2023-01-04T03:01:57.016Z,3.80
2023-01-04T03:05:01.870Z,3.90
2023-01-04T03:07:37.413Z,3.90
2023-01-04T03:10:22.665Z,3.90
2023-01-04T03:12:59.695Z,3.90
2023-01-04T03:15:28.519Z,3.90
2023-01-04T03:18:05.894Z,3.90
2023-01-04T03:20:32.552Z,3.90
2023-01-04T03:23:22.977Z,4.00
2023-01-04T03:26:10.592Z,4.00
2023-01-04T03:28:56.672Z,4.00
2023-01-04T03:32:14.743Z,4.10
2023-01-04T03:34:59.853Z,4.10
2023-01-04T03:37:37.025Z,4.10
2023-01-04T03:40:25.169Z,4.20
2023-01-04T03:43:18.302Z,4.20
2023-01-04T03:46:06.822Z,4.30
2023-01-04T03:48:45.595Z,4.40
2023-01-04T03:51:14.870Z,4.30
2023-01-04T03:54:04.194Z,4.30
2023-01-04T03:56:32.065Z,4.30
2023-01-04T03:58:58.675Z,4.30
2023-01-04T04:01:26.584Z,4.30
2023-01-04T04:04:12.785Z,4.40
2023-01-04T04:06:58.167Z,4.40
2023-01-04T04:09:24.936Z,4.40
2023-01-04T04:11:51.458Z,4.40
2023-01-04T04:14:17.990Z,4.40
2023-01-04T04:16:44.588Z,4.50
2023-01-04T04:19:11.127Z,4.50
2023-01-04T04:21:37.860Z,4.50
2023-01-04T04:24:04.914Z,4.50
2023-01-04T04:26:31.439Z,4.50
2023-01-04T04:28:57.985Z,4.50
2023-01-04T04:31:24.653Z,4.50
2023-01-04T04:33:51.302Z,4.60
2023-01-04T04:36:17.875Z,4.60
2023-01-04T04:38:44.414Z,4.60
2023-01-04T04:41:30.804Z,4.70
2023-01-04T04:43:57.935Z,4.60
2023-01-04T04:46:24.649Z,4.60
2023-01-04T04:48:51.252Z,4.60
2023-01-04T04:51:17.840Z,4.70
2023-01-04T04:53:44.751Z,4.70
2023-01-04T04:56:11.703Z,4.70
2023-01-04T04:58:38.507Z,4.80
2023-01-04T05:01:05.362Z,4.80
2023-01-04T05:03:32.157Z,4.90
2023-01-04T05:05:58.990Z,4.80
2023-01-04T05:08:25.745Z,4.80
2023-01-04T05:10:52.307Z,4.80
2023-01-04T05:13:18.868Z,4.90
2023-01-04T05:15:47.813Z,4.90
2023-01-04T05:18:15.279Z,4.90
2023-01-04T05:20:41.852Z,4.90
2023-01-04T05:23:10.431Z,4.90
2023-01-04T05:25:36.933Z,4.90
2023-01-04T05:28:03.527Z,5.00
2023-01-04T05:30:48.677Z,5.00
2023-01-04T05:33:15.242Z,5.00
2023-01-04T05:35:41.786Z,5.00
2023-01-04T05:38:08.373Z,5.00
2023-01-04T05:40:34.924Z,5.00
2023-01-04T05:43:01.451Z,5.00
2023-01-04T05:45:28.246Z,5.10
2023-01-04T05:47:54.989Z,5.10
2023-01-04T05:50:22.573Z,5.00
2023-01-04T05:52:49.606Z,5.00
2023-01-04T05:55:16.299Z,4.90
2023-01-04T05:57:43.247Z,4.90
2023-01-04T06:00:10.212Z,4.90
2023-01-04T06:02:36.927Z,4.80
2023-01-04T06:05:03.791Z,4.90
2023-01-04T06:07:30.401Z,4.80
2023-01-04T06:09:57.071Z,4.80
2023-01-04T06:12:24.067Z,4.80
2023-01-04T06:14:50.583Z,4.90
2023-01-04T06:17:17.251Z,4.80
2023-01-04T06:19:44.403Z,4.80
2023-01-04T06:22:11.305Z,4.80
2023-01-04T06:24:37.861Z,4.80
2023-01-04T06:27:04.795Z,4.80
2023-01-04T06:29:31.391Z,4.80
2023-01-04T06:31:57.988Z,4.80
2023-01-04T06:34:30.461Z,4.90
2023-01-04T06:36:57.949Z,4.80
2023-01-04T06:39:24.471Z,4.90
2023-01-04T06:41:51.050Z,4.80
2023-01-04T06:44:17.558Z,4.90
2023-01-04T06:46:44.158Z,4.90
2023-01-04T06:49:10.783Z,4.90
2023-01-04T06:51:37.332Z,4.90
2023-01-04T06:54:03.846Z,5.00
2023-01-04T06:56:31.958Z,5.00
2023-01-04T06:58:58.915Z,5.00
2023-01-04T07:01:26.171Z,5.00
2023-01-04T07:03:52.804Z,5.00
2023-01-04T07:06:19.338Z,5.10
2023-01-04T07:08:45.846Z,5.10
2023-01-04T07:11:14.118Z,5.10
2023-01-04T07:13:40.692Z,5.10
2023-01-04T07:16:07.301Z,5.20
2023-01-04T07:18:33.917Z,5.20
2023-01-04T07:21:00.499Z,5.30
2023-01-04T07:23:27.131Z,5.30
2023-01-04T07:25:53.793Z,5.30
2023-01-04T07:28:43.396Z,5.30
2023-01-04T07:31:10.024Z,5.40
2023-01-04T07:33:37.000Z,5.50
2023-01-04T07:36:05.333Z,5.50
2023-01-04T07:38:32.766Z,5.50
2023-01-04T07:40:59.282Z,5.50
2023-01-04T07:43:28.244Z,5.60
2023-01-04T07:45:55.531Z,5.70
2023-01-04T07:48:22.184Z,5.70
2023-01-04T07:50:49.205Z,5.80
2023-01-04T07:53:15.960Z,5.80
2023-01-04T07:55:42.491Z,5.80
2023-01-04T07:58:09.116Z,5.90
2023-01-04T08:00:35.705Z,5.90
2023-01-04T08:03:02.425Z,5.90
2023-01-04T08:05:31.644Z,6.00
2023-01-04T08:07:58.430Z,5.90
2023-01-04T08:10:24.946Z,6.00
2023-01-04T08:12:51.458Z,6.00
2023-01-04T08:15:17.959Z,6.10
2023-01-04T08:17:44.518Z,6.10
2023-01-04T08:20:11.058Z,6.20
2023-01-04T08:22:37.621Z,6.20
2023-01-04T08:25:06.026Z,6.10
2023-01-04T08:27:33.009Z,6.20
2023-01-04T08:29:59.567Z,6.20
2023-01-04T08:32:26.127Z,6.20
2023-01-04T08:34:54.191Z,6.20
2023-01-04T08:37:20.748Z,6.20
2023-01-04T08:39:49.812Z,6.30
2023-01-04T08:42:22.533Z,6.40
2023-01-04T08:44:59.862Z,6.30
2023-01-04T08:47:27.964Z,6.40
2023-01-04T08:49:54.684Z,6.40
2023-01-04T08:52:21.714Z,6.40
2023-01-04T08:54:49.187Z,6.50
2023-01-04T08:57:16.134Z,6.60
2023-01-04T08:59:42.694Z,6.50
2023-01-04T09:02:19.832Z,6.60
2023-01-04T09:04:46.555Z,6.60
2023-01-04T09:07:13.370Z,6.70
2023-01-04T09:09:39.903Z,6.70
2023-01-04T09:12:06.565Z,6.70
2023-01-04T09:14:33.148Z,6.80
2023-01-04T09:16:59.678Z,6.90
2023-01-04T09:19:26.238Z,6.90
2023-01-04T09:21:52.896Z,7.00
2023-01-04T09:24:19.509Z,7.00
2023-01-04T09:26:47.360Z,7.10
2023-01-04T09:29:13.935Z,7.10
2023-01-04T09:31:40.603Z,7.20
2023-01-04T09:34:16.500Z,7.30
2023-01-04T09:36:44.464Z,7.30
2023-01-04T09:39:18.669Z,7.70
2023-01-04T09:41:53.028Z,7.40
2023-01-04T09:44:54.388Z,7.40
2023-01-04T09:47:14.791Z,7.50
2023-01-04T09:49:44.666Z,7.60
2023-01-04T09:52:14.260Z,7.60
2023-01-04T09:54:45.939Z,7.70
2023-01-04T09:57:27.350Z,7.80
2023-01-04T09:59:59.561Z,7.90
2023-01-04T10:02:31.153Z,8.00
2023-01-04T10:04:59.624Z,8.10
2023-01-04T10:07:29.200Z,8.20
2023-01-04T10:09:56.284Z,8.30
2023-01-04T10:12:45.014Z,8.50
2023-01-04T10:15:22.475Z,8.70
2023-01-04T10:21:32.868Z,9.00
2023-01-04T10:24:06.707Z,9.10
2023-01-04T10:26:36.607Z,9.20
2023-01-04T10:29:09.087Z,9.10
2023-01-04T10:31:47.753Z,9.10
2023-01-04T10:34:19.255Z,9.00
2023-01-04T10:36:46.894Z,9.00
2023-01-04T10:39:17.504Z,9.00
2023-01-04T10:41:49.108Z,8.90
2023-01-04T10:44:15.627Z,9.00
2023-01-04T10:46:51.886Z,8.90
2023-01-04T10:49:23.201Z,8.90
2023-01-04T10:51:52.466Z,8.90
2023-01-04T10:54:18.982Z,8.90
2023-01-04T10:56:54.360Z,8.90
2023-01-04T10:59:29.666Z,8.90
2023-01-04T11:01:58.992Z,8.90
2023-01-04T11:04:25.580Z,9.00
2023-01-04T11:06:54.977Z,9.00
2023-01-04T11:09:25.373Z,9.00
2023-01-04T11:11:53.846Z,9.00
2023-01-04T11:14:20.538Z,9.00
2023-01-04T11:16:49.390Z,9.10
2023-01-04T11:19:15.944Z,9.10
2023-01-04T11:21:45.526Z,9.20
2023-01-04T11:24:31.606Z,9.20
2023-01-04T11:27:04.219Z,9.30
2023-01-04T11:29:30.707Z,9.30
2023-01-04T11:32:01.427Z,9.40
2023-01-04T11:34:48.523Z,9.40
2023-01-04T11:37:25.945Z,9.40
2023-01-04T11:40:10.331Z,9.40
2023-01-04T11:42:37.045Z,9.50
2023-01-04T11:45:03.762Z,9.60
2023-01-04T11:47:33.250Z,9.70
2023-01-04T11:50:00.175Z,9.70
2023-01-04T11:52:37.359Z,9.90
2023-01-04T11:55:16.415Z,9.90
2023-01-04T11:57:43.446Z,10.00
2023-01-04T12:00:13.978Z,10.00
2023-01-04T12:03:00.603Z,10.00
2023-01-04T12:05:30.456Z,10.10
2023-01-04T12:07:57.971Z,10.10
2023-01-04T12:10:26.840Z,10.20
2023-01-04T12:12:54.292Z,10.20
2023-01-04T12:15:41.091Z,10.20
2023-01-04T12:18:10.837Z,10.20
2023-01-04T12:20:37.453Z,10.30
2023-01-04T12:23:03.985Z,10.30
2023-01-04T12:25:43.213Z,10.30
2023-01-04T12:28:28.470Z,10.30
2023-01-04T12:30:55.321Z,10.30
2023-01-04T12:33:31.769Z,10.30
2023-01-04T12:36:04.882Z,10.40
2023-01-04T12:38:50.126Z,10.40
2023-01-04T12:41:16.785Z,10.50
2023-01-04T12:43:47.085Z,10.60
2023-01-04T12:46:51.821Z,10.70
2023-01-04T12:49:30.322Z,10.80
2023-01-04T12:52:29.497Z,10.90
2023-01-04T12:54:57.329Z,11.00
2023-01-04T12:57:25.156Z,11.10
2023-01-04T12:59:59.005Z,11.20
2023-01-04T13:02:29.931Z,11.30
2023-01-04T13:07:46.714Z,11.30
2023-01-04T13:10:33.260Z,11.40
2023-01-04T13:13:18.190Z,11.30
2023-01-04T13:15:59.999Z,11.30
2023-01-04T13:18:43.280Z,11.30
2023-01-04T13:21:15.213Z,11.30
2023-01-04T13:23:48.150Z,11.30
2023-01-04T13:26:26.805Z,11.30
2023-01-04T13:29:11.842Z,11.30
2023-01-04T13:31:42.233Z,11.20
2023-01-04T13:34:19.472Z,11.20
2023-01-04T13:36:53.063Z,11.20
2023-01-04T13:39:20.186Z,11.10
2023-01-04T13:41:46.909Z,11.20
2023-01-04T13:44:18.621Z,11.20
2023-01-04T13:46:45.200Z,11.10
2023-01-04T13:49:14.229Z,11.10
2023-01-04T13:51:40.841Z,11.10
2023-01-04T13:54:17.467Z,11.10
2023-01-04T13:56:47.085Z,11.10
2023-01-04T13:59:16.791Z,11.00
2023-01-04T14:01:44.496Z,11.00
2023-01-04T14:04:23.013Z,11.00
2023-01-04T14:06:50.975Z,11.00
2023-01-04T14:09:20.139Z,11.00
2023-01-04T14:12:07.616Z,11.20
2023-01-04T14:14:37.644Z,11.10
2023-01-04T14:17:24.484Z,11.10
2023-01-04T14:19:54.245Z,11.00
2023-01-04T14:22:20.899Z,11.00
2023-01-04T14:27:39.428Z,11.00
2023-01-04T14:30:18.311Z,11.00
2023-01-04T14:32:57.258Z,11.10
2023-01-04T14:35:24.352Z,11.00
2023-01-04T14:37:51.237Z,11.00
2023-01-04T14:40:28.273Z,11.00
2023-01-04T14:42:55.396Z,11.00
2023-01-04T14:45:22.027Z,11.00
2023-01-04T14:47:48.892Z,11.00
2023-01-04T14:50:17.533Z,11.00
2023-01-04T14:52:50.698Z,11.00
2023-01-04T14:55:17.264Z,11.00
2023-01-04T14:57:45.125Z,11.00
2023-01-04T15:00:19.428Z,11.00
2023-01-04T15:02:50.882Z,10.90
2023-01-04T15:05:20.210Z,10.80
2023-01-04T15:07:47.088Z,11.00
2023-01-04T15:10:27.118Z,10.80
2023-01-04T15:12:54.298Z,10.80
2023-01-04T15:15:21.281Z,10.80
2023-01-04T15:17:48.183Z,10.70
2023-01-04T15:20:14.701Z,10.70
2023-01-04T15:22:41.414Z,10.70
2023-01-04T15:25:08.297Z,10.70
2023-01-04T15:27:41.747Z,10.60
2023-01-04T15:30:09.728Z,10.60
2023-01-04T15:32:36.740Z,10.60
2023-01-04T15:35:03.315Z,10.50
2023-01-04T15:37:29.862Z,10.60
2023-01-04T15:40:01.819Z,10.50
2023-01-04T15:42:47.647Z,10.40
2023-01-04T15:45:14.226Z,10.40
2023-01-04T15:47:40.699Z,10.40
2023-01-04T15:50:07.355Z,10.30
2023-01-04T15:52:33.977Z,10.30
2023-01-04T15:55:00.547Z,10.40
2023-01-04T15:57:27.043Z,10.20
2023-01-04T15:59:53.576Z,10.30
2023-01-04T16:02:20.989Z,10.10
2023-01-04T16:04:47.628Z,10.00
2023-01-04T16:07:14.183Z,10.10
2023-01-04T16:09:40.800Z,10.10
2023-01-04T16:12:26.253Z,12.30
2023-01-04T16:14:53.441Z,13.40
2023-01-04T16:17:19.975Z,14.10
2023-01-04T16:19:46.486Z,13.80
2023-01-04T16:22:13.025Z,14.00
2023-01-04T16:27:31.141Z,14.20
2023-01-04T16:30:02.059Z,13.00
2023-01-04T16:32:28.665Z,12.30
2023-01-04T16:34:55.262Z,11.80
2023-01-04T16:37:25.669Z,11.30
2023-01-04T16:40:08.996Z,11.10
2023-01-04T16:42:37.017Z,10.80
2023-01-04T16:45:03.724Z,10.60
2023-01-04T16:47:37.320Z,10.40
2023-01-04T16:50:04.023Z,10.30
2023-01-04T16:52:30.569Z,10.20
2023-01-04T16:54:57.070Z,10.20
2023-01-04T16:57:23.996Z,10.10
2023-01-04T16:59:50.513Z,10.10
2023-01-04T17:02:17.205Z,10.00
2023-01-04T17:04:43.810Z,10.00
2023-01-04T17:07:11.376Z,10.00
2023-01-04T17:09:41.033Z,9.90
2023-01-04T17:15:23.838Z,9.90
2023-01-04T17:17:42.972Z,9.80
2023-01-04T17:20:09.683Z,9.80
2023-01-04T17:22:36.365Z,9.80
2023-01-04T17:25:03.599Z,9.90
2023-01-04T17:27:30.136Z,9.90
2023-01-04T17:29:56.651Z,9.70
2023-01-04T17:32:23.207Z,9.70
2023-01-04T17:34:49.999Z,9.70
2023-01-04T17:37:16.534Z,9.70
2023-01-04T17:39:43.117Z,9.70
2023-01-04T17:42:09.852Z,9.70
2023-01-04T17:44:36.398Z,9.70
2023-01-04T17:47:02.914Z,9.70
2023-01-04T17:49:32.040Z,9.60
2023-01-04T17:51:59.276Z,9.60
2023-01-04T17:54:26.788Z,9.60
2023-01-04T17:56:53.389Z,9.60
2023-01-04T17:59:19.909Z,9.60
2023-01-04T18:01:46.652Z,9.60
2023-01-04T18:04:13.274Z,9.60
2023-01-04T18:06:39.815Z,9.60
2023-01-04T18:09:07.029Z,9.60
2023-01-04T18:11:34.221Z,9.60
2023-01-04T18:14:03.058Z,9.60
2023-01-04T18:16:32.885Z,9.60
2023-01-04T18:19:00.194Z,9.60
2023-01-04T18:21:30.281Z,9.60
2023-01-04T18:29:31.836Z,9.60
2023-01-04T18:31:58.475Z,9.70
2023-01-04T18:34:26.562Z,9.70
2023-01-04T18:36:53.894Z,9.60
2023-01-04T18:39:20.501Z,9.70
2023-01-04T18:41:47.093Z,9.70
2023-01-04T18:47:02.355Z,9.70
2023-01-04T18:49:29.272Z,9.70
2023-01-04T18:51:55.832Z,9.70
2023-01-04T18:54:22.647Z,9.70
2023-01-04T18:56:49.167Z,9.70
2023-01-04T18:59:19.065Z,9.70
2023-01-04T19:01:46.100Z,9.70
2023-01-04T19:04:13.038Z,9.80
2023-01-04T19:06:40.654Z,9.80
2023-01-04T19:09:08.114Z,9.80
2023-01-04T19:11:35.159Z,9.80
2023-01-04T19:14:02.788Z,9.80
2023-01-04T19:16:31.050Z,9.80
2023-01-04T19:18:58.654Z,9.90
2023-01-04T19:21:25.455Z,9.90
2023-01-04T19:23:52.599Z,9.90
2023-01-04T19:26:19.487Z,10.00
2023-01-04T19:28:46.817Z,10.00
2023-01-04T19:31:13.939Z,10.00
2023-01-04T19:33:40.480Z,10.10
2023-01-04T19:36:08.036Z,10.20
2023-01-04T19:38:35.039Z,10.10
2023-01-04T19:41:01.687Z,10.10
2023-01-04T19:43:28.339Z,10.10
2023-01-04T19:45:55.051Z,10.10
2023-01-04T19:48:23.691Z,10.10
2023-01-04T19:51:00.551Z,10.10
2023-01-04T19:53:27.111Z,10.20
2023-01-04T19:55:55.703Z,10.30
2023-01-04T19:58:22.248Z,10.30
2023-01-04T20:00:54.259Z,10.30
2023-01-04T20:03:22.535Z,10.30
2023-01-04T20:05:49.895Z,10.40
2023-01-04T20:08:16.477Z,10.40
2023-01-04T20:10:43.111Z,10.30
2023-01-04T20:13:09.801Z,10.30
2023-01-04T20:15:39.502Z,10.30
2023-01-04T20:18:13.338Z,10.30
2023-01-04T20:20:44.016Z,10.30
2023-01-04T20:23:11.102Z,10.30
2023-01-04T20:25:38.348Z,10.40
2023-01-04T20:28:04.864Z,10.40
2023-01-04T20:30:31.481Z,10.40
2023-01-04T20:32:58.101Z,10.40
2023-01-04T20:35:25.579Z,10.50
2023-01-04T20:37:56.839Z,10.40
2023-01-04T20:40:27.217Z,10.40
2023-01-04T20:43:12.197Z,10.50
2023-01-04T20:45:42.254Z,10.50
2023-01-04T20:48:08.883Z,10.50
2023-01-04T20:50:35.453Z,10.50
2023-01-04T20:53:02.251Z,10.50
2023-01-04T20:55:28.775Z,10.40
2023-01-04T20:57:55.351Z,10.60
2023-01-04T21:00:21.920Z,10.60
2023-01-04T21:02:48.647Z,10.50
2023-01-04T21:05:15.360Z,10.60
2023-01-04T21:07:41.860Z,10.50
2023-01-04T21:10:08.406Z,10.50
2023-01-04T21:12:37.504Z,10.60
2023-01-04T21:15:04.298Z,10.60
2023-01-04T21:17:30.914Z,10.60
2023-01-04T21:19:57.448Z,10.60
2023-01-04T21:22:24.627Z,10.60
2023-01-04T21:24:51.165Z,10.60
2023-01-04T21:27:17.680Z,10.60
2023-01-04T21:29:44.234Z,10.70
2023-01-04T21:32:10.744Z,10.60
2023-01-04T21:34:37.275Z,10.70
2023-01-04T21:37:03.786Z,10.70
2023-01-04T21:39:30.352Z,10.70
2023-01-04T21:41:56.873Z,10.70
2023-01-04T21:44:23.433Z,10.70
2023-01-04T21:46:50.006Z,11.10
2023-01-04T21:49:16.729Z,10.80
2023-01-04T21:51:43.280Z,10.60
2023-01-04T21:54:09.869Z,10.60
2023-01-04T21:56:36.410Z,10.60
2023-01-04T21:59:02.931Z,10.60
2023-01-04T22:01:34.379Z,10.60
2023-01-04T22:04:02.142Z,10.60
2023-01-04T22:06:29.234Z,10.60
2023-01-04T22:08:55.773Z,10.60
2023-01-04T22:11:22.482Z,10.60
2023-01-04T22:13:50.522Z,10.70
2023-01-04T22:16:17.749Z,10.70
2023-01-04T22:18:48.206Z,10.70
2023-01-04T22:21:15.865Z,10.70
2023-01-04T22:23:42.418Z,10.80
2023-01-04T22:26:09.056Z,10.80
2023-01-04T22:28:37.147Z,10.80
2023-01-04T22:31:05.765Z,10.80
2023-01-04T22:33:32.913Z,10.90
2023-01-04T22:35:59.443Z,10.90
2023-01-04T22:38:26.011Z,10.90
2023-01-04T22:40:52.575Z,10.90
2023-01-04T22:43:19.103Z,10.80
2023-01-04T22:45:46.021Z,10.90
2023-01-04T22:48:12.575Z,10.90
2023-01-04T22:50:39.189Z,10.90
2023-01-04T22:53:05.741Z,10.90
2023-01-04T22:55:52.460Z,10.90
2023-01-04T22:58:18.754Z,10.90
2023-01-04T23:00:45.274Z,10.90
2023-01-04T23:03:11.938Z,11.00
2023-01-04T23:05:41.799Z,11.00
2023-01-04T23:08:08.420Z,10.90
2023-01-04T23:10:35.789Z,10.90
2023-01-04T23:13:02.950Z,10.90
2023-01-04T23:15:29.930Z,11.00
2023-01-04T23:17:56.511Z,11.00
2023-01-04T23:20:23.001Z,11.00
2023-01-04T23:22:49.579Z,11.00
2023-01-04T23:25:16.107Z,11.00
2023-01-04T23:27:42.739Z,11.00
2023-01-04T23:30:09.699Z,11.10
2023-01-04T23:32:36.223Z,11.00
2023-01-04T23:35:02.936Z,11.10
2023-01-04T23:37:31.082Z,11.10
2023-01-04T23:39:57.733Z,11.10
2023-01-04T23:42:24.293Z,11.00
2023-01-04T23:44:50.802Z,11.10
2023-01-04T23:47:17.348Z,11.00
2023-01-04T23:49:45.910Z,11.10
2023-01-04T23:52:12.634Z,11.10
2023-01-04T23:54:40.443Z,11.20
2023-01-04T23:57:07.047Z,11.20
2023-01-04T23:59:33.602Z,11.40
